createdAt,value
2024-02-13T00:01:42.123Z,81.46
2024-02-13T00:04:16.238Z,81.59
2024-02-13T00:06:46.777Z,81.45
2024-02-13T00:09:16.164Z,81.32
2024-02-13T00:11:48.318Z,81.23
2024-02-13T00:14:17.753Z,81.02
2024-02-13T00:16:47.939Z,81.09
2024-02-13T00:19:17.544Z,80.88
2024-02-13T00:21:49.507Z,80.92
2024-02-13T00:24:18.988Z,81.13
2024-02-13T00:26:49.835Z,81.02
2024-02-13T00:29:20.216Z,81.01
2024-02-13T00:31:51.901Z,81.06
2024-02-13T00:34:42.054Z,81.09
2024-02-13T00:42:09.111Z,81.01
2024-02-13T00:45:33.273Z,81.02
2024-02-13T00:49:20.110Z,81.13
2024-02-13T00:55:38.801Z,81.15
2024-02-13T00:59:22.557Z,81.01
2024-02-13T01:01:51.717Z,81.07
2024-02-13T01:04:20.868Z,81.20
2024-02-13T01:06:50.090Z,81.12
2024-02-13T01:09:19.682Z,80.93
2024-02-13T01:11:48.914Z,80.87
2024-02-13T01:14:20.349Z,80.87
2024-02-13T01:16:49.549Z,80.84
2024-02-13T01:19:21.728Z,80.75
2024-02-13T01:21:50.970Z,80.79
2024-02-13T01:24:19.969Z,80.78
2024-02-13T01:26:49.070Z,80.77
2024-02-13T01:29:20.201Z,80.80
2024-02-13T01:31:49.840Z,80.81
2024-02-13T01:34:18.933Z,80.80
2024-02-13T01:36:48.066Z,80.62
2024-02-13T01:39:17.263Z,80.62
2024-02-13T01:41:46.458Z,80.56
2024-02-13T01:44:15.543Z,80.49
2024-02-13T01:46:46.837Z,80.69
2024-02-13T01:49:16.322Z,80.67
2024-02-13T01:51:45.485Z,80.56
2024-02-13T01:54:14.924Z,80.64
2024-02-13T01:56:48.339Z,80.50
2024-02-13T01:59:18.465Z,80.40
2024-02-13T02:01:50.862Z,80.42
2024-02-13T02:04:20.542Z,80.40
2024-02-13T02:06:51.066Z,80.44
2024-02-13T02:09:20.616Z,80.27
2024-02-13T02:11:49.642Z,80.24
2024-02-13T02:14:18.861Z,80.34
2024-02-13T02:17:11.198Z,80.56
2024-02-13T02:19:40.868Z,80.50
2024-02-13T02:22:10.073Z,80.54
2024-02-13T02:24:39.556Z,80.47
2024-02-13T02:27:25.383Z,80.50
2024-02-13T02:30:04.547Z,80.60
2024-02-13T02:32:38.071Z,80.50
2024-02-13T02:35:08.348Z,80.45
2024-02-13T02:37:38.043Z,80.47
2024-02-13T02:40:08.763Z,80.50
2024-02-13T02:42:39.316Z,80.51
2024-02-13T02:45:10.665Z,80.46
2024-02-13T02:47:39.808Z,80.34
2024-02-13T02:50:11.625Z,80.40
2024-02-13T02:52:40.794Z,80.45
2024-02-13T02:55:10.784Z,80.26
2024-02-13T02:57:41.526Z,80.27
2024-02-13T03:00:14.084Z,80.07
2024-02-13T03:03:03.636Z,80.09
2024-02-13T03:05:33.962Z,80.10
2024-02-13T03:08:03.406Z,79.94
2024-02-13T03:10:32.397Z,79.96
2024-02-13T03:13:03.108Z,79.94
2024-02-13T03:15:34.087Z,79.67
2024-02-13T03:18:05.178Z,79.63
2024-02-13T03:20:34.873Z,79.68
2024-02-13T03:23:03.893Z,79.71
2024-02-13T03:25:33.090Z,79.83
2024-02-13T03:28:23.557Z,79.84
2024-02-13T03:30:58.208Z,79.84
2024-02-13T03:33:28.910Z,79.93
2024-02-13T03:35:58.913Z,79.90
2024-02-13T03:38:28.713Z,79.89
2024-02-13T03:40:58.446Z,79.94
2024-02-13T03:43:28.897Z,80.06
2024-02-13T03:46:09.852Z,80.01
2024-02-13T03:48:42.275Z,80.11
2024-02-13T03:51:14.603Z,80.10
2024-02-13T03:53:44.886Z,80.08
2024-02-13T03:56:15.559Z,80.07
2024-02-13T03:58:47.544Z,79.94
2024-02-13T04:01:17.268Z,79.75
2024-02-13T04:03:46.520Z,79.82
2024-02-13T04:06:16.554Z,79.60
2024-02-13T04:08:47.146Z,79.81
2024-02-13T04:11:17.749Z,79.77
2024-02-13T04:13:49.752Z,79.70
2024-02-13T04:16:19.656Z,79.61
2024-02-13T04:18:48.978Z,79.53
2024-02-13T04:21:19.978Z,79.48
2024-02-13T04:23:51.532Z,79.42
2024-02-13T04:26:30.922Z,79.58
2024-02-13T04:29:07.461Z,79.42
2024-02-13T04:31:38.073Z,79.46
2024-02-13T04:34:08.990Z,79.45
2024-02-13T04:36:42.160Z,79.37
2024-02-13T04:39:12.862Z,79.37
2024-02-13T04:41:43.695Z,79.31
2024-02-13T04:44:18.418Z,79.43
2024-02-13T04:46:47.547Z,79.32
2024-02-13T04:49:16.674Z,79.47
2024-02-13T04:51:46.556Z,79.34
2024-02-13T04:54:16.470Z,79.36
2024-02-13T04:56:46.249Z,79.32
2024-02-13T04:59:18.773Z,79.38
2024-02-13T05:01:50.304Z,79.21
2024-02-13T05:04:38.677Z,79.30
2024-02-13T05:07:24.690Z,79.31
2024-02-13T05:09:54.368Z,79.43
2024-02-13T05:12:24.108Z,79.28
2024-02-13T05:14:57.038Z,79.23
2024-02-13T05:17:27.728Z,79.20
2024-02-13T05:19:57.030Z,79.16
2024-02-13T05:22:26.318Z,79.17
2024-02-13T05:24:57.240Z,79.15
2024-02-13T05:27:26.702Z,79.10
2024-02-13T05:29:59.508Z,79.05
2024-02-13T05:32:28.968Z,78.89
2024-02-13T05:34:58.695Z,78.98
2024-02-13T05:37:40.148Z,78.91
2024-02-13T05:40:12.366Z,78.92
2024-02-13T05:42:42.384Z,78.90
2024-02-13T05:45:13.285Z,78.85
2024-02-13T05:48:02.580Z,78.90
2024-02-13T05:50:31.719Z,78.95
2024-02-13T05:53:00.896Z,78.86
2024-02-13T05:55:30.518Z,78.66
2024-02-13T05:57:59.766Z,78.64
2024-02-13T06:00:30.450Z,78.59
2024-02-13T06:03:02.302Z,78.67
2024-02-13T06:05:31.781Z,78.48
2024-02-13T06:08:00.883Z,78.42
2024-02-13T06:10:31.721Z,78.41
2024-02-13T06:13:01.006Z,78.27
2024-02-13T06:15:37.287Z,78.02
2024-02-13T06:18:10.526Z,77.97
2024-02-13T06:20:39.748Z,77.91
2024-02-13T06:23:09.100Z,77.78
2024-02-13T06:25:38.723Z,77.79
2024-02-13T06:28:09.315Z,77.60
2024-02-13T06:30:43.841Z,77.44
2024-02-13T06:33:14.324Z,77.40
2024-02-13T06:35:45.232Z,77.10
2024-02-13T06:38:36.657Z,77.28
2024-02-13T06:41:07.194Z,76.98
2024-02-13T06:43:37.252Z,77.14
2024-02-13T06:46:08.210Z,76.56
2024-02-13T06:48:37.677Z,76.60
2024-02-13T06:51:07.116Z,76.48
2024-02-13T06:53:36.986Z,76.60
2024-02-13T06:56:06.737Z,76.48
2024-02-13T06:58:36.837Z,76.38
2024-02-13T07:01:07.849Z,76.18
2024-02-13T07:03:37.160Z,76.34
2024-02-13T07:06:06.966Z,76.44
2024-02-13T07:08:36.328Z,76.34
2024-02-13T07:11:05.866Z,76.25
2024-02-13T07:13:54.320Z,76.35
2024-02-13T07:16:24.828Z,76.20
2024-02-13T07:18:54.114Z,76.20
2024-02-13T07:21:25.363Z,76.23
2024-02-13T07:23:55.926Z,76.19
2024-02-13T07:26:26.015Z,76.20
2024-02-13T07:28:55.401Z,76.07
2024-02-13T07:31:26.306Z,76.05
2024-02-13T07:33:55.619Z,76.02
2024-02-13T07:36:24.758Z,75.87
2024-02-13T07:38:54.259Z,75.72
2024-02-13T07:41:24.401Z,75.87
2024-02-13T07:43:53.580Z,76.01
2024-02-13T07:46:22.771Z,75.80
2024-02-13T07:48:57.640Z,75.84
2024-02-13T07:51:26.774Z,76.10
2024-02-13T07:53:55.952Z,76.09
2024-02-13T07:56:30.079Z,76.03
2024-02-13T07:58:59.806Z,75.84
2024-02-13T08:01:29.288Z,76.01
2024-02-13T08:04:00.534Z,76.10
2024-02-13T08:06:30.176Z,75.94
2024-02-13T08:09:01.496Z,75.78
2024-02-13T08:11:30.684Z,76.03
2024-02-13T08:13:59.813Z,76.04
2024-02-13T08:16:30.777Z,75.83
2024-02-13T08:19:01.511Z,76.01
2024-02-13T08:21:30.946Z,75.84
2024-02-13T08:24:00.084Z,75.93
2024-02-13T08:26:29.552Z,75.58
2024-02-13T08:28:58.753Z,75.37
2024-02-13T08:31:28.403Z,75.22
2024-02-13T08:33:58.389Z,75.06
2024-02-13T08:36:29.818Z,74.98
2024-02-13T08:38:58.993Z,75.08
2024-02-13T08:41:30.246Z,74.95
2024-02-13T08:43:59.395Z,74.64
2024-02-13T08:46:28.477Z,74.54
2024-02-13T08:48:58.381Z,74.45
2024-02-13T08:51:30.264Z,74.32
2024-02-13T08:54:04.376Z,74.24
2024-02-13T08:56:34.277Z,74.33
2024-02-13T08:59:04.592Z,74.21
2024-02-13T09:01:34.099Z,74.32
2024-02-13T09:04:07.143Z,74.35
2024-02-13T09:06:37.726Z,74.15
2024-02-13T09:09:10.596Z,74.37
2024-02-13T09:11:40.099Z,74.34
2024-02-13T09:14:11.046Z,74.11
2024-02-13T09:16:40.250Z,74.01
2024-02-13T09:19:09.294Z,74.09
2024-02-13T09:21:40.232Z,73.79
2024-02-13T09:24:10.783Z,73.77
2024-02-13T09:26:40.167Z,73.69
2024-02-13T09:29:09.128Z,73.64
2024-02-13T09:31:38.519Z,73.45
2024-02-13T09:34:09.838Z,73.57
2024-02-13T09:36:41.271Z,73.46
2024-02-13T09:39:13.289Z,73.55
2024-02-13T09:41:42.526Z,73.48
2024-02-13T09:44:14.124Z,73.53
2024-02-13T09:46:44.949Z,73.73
2024-02-13T09:49:16.374Z,73.54
2024-02-13T09:51:52.841Z,73.53
2024-02-13T09:54:26.370Z,73.77
2024-02-13T09:56:56.738Z,73.83
2024-02-13T09:59:27.893Z,73.65
2024-02-13T10:02:02.514Z,73.88
2024-02-13T10:04:31.657Z,73.71
2024-02-13T10:07:05.824Z,73.76
2024-02-13T10:09:35.764Z,73.80
2024-02-13T10:12:14.128Z,73.83
2024-02-13T10:14:43.848Z,73.69
2024-02-13T10:17:13.442Z,73.61
2024-02-13T10:19:44.248Z,73.48
2024-02-13T10:22:16.549Z,73.31
2024-02-13T10:24:48.573Z,73.37
2024-02-13T10:27:19.304Z,73.55
2024-02-13T10:29:48.363Z,73.29
2024-02-13T10:32:20.088Z,73.64
2024-02-13T10:34:49.532Z,73.36
2024-02-13T10:37:21.530Z,73.34
2024-02-13T10:39:56.440Z,73.32
2024-02-13T10:42:28.204Z,72.67
2024-02-13T10:45:04.715Z,72.66
2024-02-13T10:47:41.754Z,72.91
2024-02-13T10:50:11.908Z,73.01
2024-02-13T10:52:45.875Z,73.08
2024-02-13T10:55:19.544Z,72.97
2024-02-13T10:57:51.227Z,73.01
2024-02-13T11:00:24.969Z,72.91
2024-02-13T11:02:57.002Z,73.01
2024-02-13T11:05:28.817Z,72.88
2024-02-13T11:07:59.788Z,73.00
2024-02-13T11:10:35.863Z,72.77
2024-02-13T11:13:10.646Z,72.55
2024-02-13T11:15:41.994Z,72.85
2024-02-13T11:18:32.016Z,73.05
2024-02-13T11:21:10.491Z,73.00
2024-02-13T11:24:06.829Z,72.99
2024-02-13T11:26:38.003Z,73.02
2024-02-13T11:29:14.212Z,72.91
2024-02-13T11:31:55.455Z,73.03
2024-02-13T11:34:42.864Z,72.88
2024-02-13T11:37:30.835Z,73.15
2024-02-13T11:40:08.000Z,73.07
2024-02-13T11:43:01.520Z,73.07
2024-02-13T11:45:32.908Z,73.00
2024-02-13T11:48:08.755Z,73.05
2024-02-13T11:50:43.474Z,73.12
2024-02-13T11:53:24.212Z,72.91
2024-02-13T11:55:58.594Z,72.72
2024-02-13T11:58:32.882Z,72.38
2024-02-13T12:01:05.943Z,72.33
2024-02-13T12:03:50.413Z,72.16
2024-02-13T12:06:22.385Z,72.21
2024-02-13T12:08:52.719Z,72.39
2024-02-13T12:11:25.392Z,72.39
2024-02-13T12:13:57.787Z,71.76
2024-02-13T12:16:30.449Z,71.91
2024-02-13T12:19:01.387Z,71.77
2024-02-13T12:21:33.616Z,71.92
2024-02-13T12:24:05.088Z,72.18
2024-02-13T12:26:43.139Z,72.39
2024-02-13T12:29:20.715Z,72.31
2024-02-13T12:31:54.308Z,72.17
2024-02-13T12:34:27.268Z,72.32
2024-02-13T12:36:59.964Z,72.63
2024-02-13T12:39:32.979Z,72.54
2024-02-13T12:42:12.962Z,72.41
2024-02-13T12:44:43.709Z,72.56
2024-02-13T12:47:15.496Z,72.59
2024-02-13T12:49:46.810Z,72.79
2024-02-13T12:52:19.224Z,72.81
2024-02-13T12:54:48.822Z,72.76
2024-02-13T12:57:21.288Z,72.94
2024-02-13T12:59:57.070Z,72.85
2024-02-13T13:02:28.660Z,72.77
2024-02-13T13:04:59.001Z,72.88
2024-02-13T13:07:31.597Z,73.01
2024-02-13T13:10:00.598Z,73.08
2024-02-13T13:12:31.256Z,73.10
2024-02-13T13:15:06.919Z,73.02
2024-02-13T13:17:43.137Z,73.24
2024-02-13T13:20:18.918Z,73.36
2024-02-13T13:22:49.300Z,73.37
2024-02-13T13:25:25.626Z,73.46
2024-02-13T13:28:00.715Z,73.31
2024-02-13T13:30:30.410Z,73.32
2024-02-13T13:33:08.145Z,73.22
2024-02-13T13:35:39.480Z,73.19
2024-02-13T13:38:08.432Z,73.51
2024-02-13T13:40:40.960Z,73.47
2024-02-13T13:43:12.430Z,73.76
2024-02-13T13:45:56.049Z,73.67
2024-02-13T13:48:27.554Z,73.61
2024-02-13T13:50:56.924Z,73.72
2024-02-13T13:53:26.216Z,73.83
2024-02-13T13:55:55.866Z,73.64
2024-02-13T13:58:26.424Z,73.78
2024-02-13T14:00:57.327Z,73.72
2024-02-13T14:03:26.651Z,73.88
2024-02-13T14:05:55.710Z,73.76
2024-02-13T14:08:25.342Z,73.88
2024-02-13T14:10:57.047Z,73.94
2024-02-13T14:13:28.245Z,74.01
2024-02-13T14:15:59.248Z,73.91
2024-02-13T14:18:29.816Z,74.29
2024-02-13T14:21:01.063Z,74.60
2024-02-13T14:23:30.918Z,74.48
2024-02-13T14:26:00.033Z,74.62
2024-02-13T14:28:30.572Z,74.48
2024-02-13T14:30:59.828Z,74.58
2024-02-13T14:33:29.767Z,74.69
2024-02-13T14:36:02.084Z,74.83
2024-02-13T14:38:32.521Z,75.03
2024-02-13T14:41:02.154Z,75.09
2024-02-13T14:43:33.591Z,75.10
2024-02-13T14:46:02.697Z,75.16
2024-02-13T14:48:31.896Z,75.53
2024-02-13T14:51:02.130Z,75.59
2024-02-13T14:53:32.758Z,75.57
2024-02-13T14:56:02.100Z,75.79
2024-02-13T14:58:38.961Z,76.13
2024-02-13T15:01:10.895Z,76.26
2024-02-13T15:03:43.068Z,76.42
2024-02-13T15:06:12.462Z,76.70
2024-02-13T15:08:41.904Z,77.05
2024-02-13T15:11:11.295Z,77.03
2024-02-13T15:13:41.833Z,77.32
2024-02-13T15:16:10.961Z,77.17
2024-02-13T15:19:02.327Z,77.48
2024-02-13T15:21:32.125Z,77.65
2024-02-13T15:24:01.843Z,77.94
2024-02-13T15:26:32.931Z,78.08
2024-02-13T15:29:05.200Z,78.29
2024-02-13T15:31:33.208Z,78.41
2024-02-13T15:34:11.585Z,78.47
2024-02-13T15:37:02.480Z,78.52
2024-02-13T15:39:49.926Z,78.61
2024-02-13T15:42:44.006Z,78.73
2024-02-13T15:45:47.377Z,79.03
2024-02-13T15:48:17.285Z,79.04
2024-02-13T15:50:47.449Z,79.14
2024-02-13T15:53:17.192Z,79.08
2024-02-13T15:55:49.651Z,79.08
2024-02-13T15:58:20.452Z,79.19
2024-02-13T16:00:52.808Z,79.26
2024-02-13T16:03:21.857Z,79.71
2024-02-13T16:05:51.506Z,79.57
2024-02-13T16:08:20.905Z,79.68
2024-02-13T16:10:50.118Z,79.80
2024-02-13T16:13:20.272Z,79.80
2024-02-13T16:15:51.258Z,79.89
2024-02-13T16:18:24.262Z,79.89
2024-02-13T16:20:53.592Z,80.01
2024-02-13T16:23:22.667Z,79.98
2024-02-13T16:25:51.777Z,80.02
2024-02-13T16:28:21.159Z,80.07
2024-02-13T16:30:51.582Z,80.23
2024-02-13T16:33:21.601Z,80.11
2024-02-13T16:35:51.053Z,80.19
2024-02-13T16:38:20.107Z,80.17
2024-02-13T16:40:49.693Z,80.34
2024-02-13T16:43:18.654Z,80.39
2024-02-13T16:45:47.942Z,80.23
2024-02-13T16:48:19.894Z,80.28
2024-02-13T16:50:53.015Z,80.17
2024-02-13T16:53:24.088Z,80.10
2024-02-13T16:55:53.199Z,80.27
2024-02-13T16:58:26.317Z,80.29
2024-02-13T17:00:56.181Z,80.28
2024-02-13T17:03:27.829Z,80.35
2024-02-13T17:05:58.564Z,80.33
2024-02-13T17:08:29.402Z,80.35
2024-02-13T17:10:59.660Z,80.43
2024-02-13T17:13:32.809Z,80.41
2024-02-13T17:16:02.416Z,80.44
2024-02-13T17:18:33.372Z,80.50
2024-02-13T17:21:02.740Z,80.48
2024-02-13T17:23:33.153Z,80.60
2024-02-13T17:26:02.407Z,80.51
2024-02-13T17:28:31.442Z,80.50
2024-02-13T17:31:02.049Z,80.46
2024-02-13T17:33:32.954Z,80.57
2024-02-13T17:36:02.508Z,80.58
2024-02-13T17:38:35.925Z,80.64
2024-02-13T17:41:09.383Z,80.63
2024-02-13T17:43:39.165Z,80.52
2024-02-13T17:46:09.131Z,80.52
2024-02-13T17:48:40.111Z,80.67
2024-02-13T17:51:11.379Z,80.50
2024-02-13T17:53:42.395Z,80.62
2024-02-13T17:56:12.057Z,80.72
2024-02-13T17:58:42.120Z,80.52
2024-02-13T18:01:11.611Z,80.57
2024-02-13T18:03:42.938Z,80.68
2024-02-13T18:06:13.539Z,80.68
2024-02-13T18:08:47.376Z,80.79
2024-02-13T18:11:16.597Z,80.88
2024-02-13T18:13:47.400Z,80.92
2024-02-13T18:16:17.350Z,80.68
2024-02-13T18:18:49.606Z,80.73
2024-02-13T18:21:19.795Z,80.72
2024-02-13T18:23:52.798Z,80.78
2024-02-13T18:26:32.475Z,80.87
2024-02-13T18:29:01.720Z,80.88
2024-02-13T18:31:31.334Z,80.79
2024-02-13T18:34:02.339Z,80.81
2024-02-13T18:36:32.173Z,80.75
2024-02-13T18:39:01.738Z,80.80
2024-02-13T18:41:34.683Z,80.60
2024-02-13T18:44:04.414Z,80.70
2024-02-13T18:46:34.756Z,80.68
2024-02-13T18:49:07.283Z,80.57
2024-02-13T18:51:36.651Z,80.37
2024-02-13T18:54:06.941Z,80.45
2024-02-13T18:56:40.208Z,80.20
2024-02-13T18:59:12.506Z,80.33
2024-02-13T19:01:41.777Z,80.29
2024-02-13T19:04:12.305Z,80.27
2024-02-13T19:06:41.573Z,80.40
2024-02-13T19:09:12.507Z,80.51
2024-02-13T19:11:42.094Z,80.37
2024-02-13T19:14:11.185Z,80.34
2024-02-13T19:16:45.851Z,80.25
2024-02-13T19:19:17.198Z,80.18
2024-02-13T19:21:53.081Z,80.28
2024-02-13T19:24:23.387Z,80.28
2024-02-13T19:26:53.922Z,80.11
2024-02-13T19:29:29.717Z,80.19
2024-02-13T19:32:02.205Z,80.05
2024-02-13T19:34:39.161Z,80.06
2024-02-13T19:37:21.568Z,80.12
2024-02-13T19:39:51.972Z,80.07
2024-02-13T19:42:21.440Z,80.17
2024-02-13T19:44:52.505Z,80.21
2024-02-13T19:47:23.715Z,80.17
2024-02-13T19:50:18.484Z,80.24
2024-02-13T19:53:10.113Z,80.16
2024-02-13T19:55:59.247Z,80.39
2024-02-13T19:58:48.403Z,80.23
2024-02-13T20:01:41.086Z,80.40
2024-02-13T20:04:33.174Z,80.32
2024-02-13T20:07:23.831Z,80.34
2024-02-13T20:09:55.000Z,80.40
2024-02-13T20:12:25.580Z,80.41
2024-02-13T20:14:57.171Z,80.52
2024-02-13T20:17:27.053Z,80.39
2024-02-13T20:19:56.348Z,80.40
2024-02-13T20:22:29.887Z,80.49
2024-02-13T20:24:59.169Z,80.46
2024-02-13T20:27:28.369Z,80.47
2024-02-13T20:29:57.416Z,80.50
2024-02-13T20:32:27.438Z,80.57
2024-02-13T20:34:56.683Z,80.48
2024-02-13T20:37:26.367Z,80.59
2024-02-13T20:39:59.029Z,80.60
2024-02-13T20:42:29.688Z,80.69
2024-02-13T20:45:07.234Z,80.74
2024-02-13T20:47:47.159Z,80.70
2024-02-13T20:50:16.360Z,80.74
2024-02-13T20:52:48.200Z,80.96
2024-02-13T20:55:20.597Z,80.96
2024-02-13T20:57:50.237Z,80.86
2024-02-13T21:00:20.561Z,80.85
2024-02-13T21:02:49.977Z,80.79
2024-02-13T21:05:22.116Z,80.94
2024-02-13T21:07:51.508Z,81.02
2024-02-13T21:10:24.089Z,80.77
2024-02-13T21:13:04.188Z,80.77
2024-02-13T21:15:35.572Z,80.72
2024-02-13T21:18:24.901Z,80.85
2024-02-13T21:21:09.401Z,80.79
2024-02-13T21:23:53.365Z,80.93
2024-02-13T21:26:27.146Z,80.89
2024-02-13T21:28:56.256Z,81.00
2024-02-13T21:31:25.225Z,81.01
2024-02-13T21:33:55.257Z,81.04
2024-02-13T21:36:24.547Z,80.98
2024-02-13T21:38:53.498Z,81.14
2024-02-13T21:41:28.195Z,80.96
2024-02-13T21:43:57.311Z,80.95
2024-02-13T21:46:26.407Z,81.05
2024-02-13T21:48:56.165Z,80.90
2024-02-13T21:51:25.605Z,80.96
2024-02-13T21:54:03.682Z,81.01
2024-02-13T21:56:35.520Z,81.13
2024-02-13T21:59:04.733Z,81.13
2024-02-13T22:01:33.900Z,81.00
2024-02-13T22:04:03.080Z,81.08
2024-02-13T22:06:34.603Z,80.97
2024-02-13T22:09:03.825Z,80.88
2024-02-13T22:11:34.797Z,80.68
2024-02-13T22:14:04.259Z,80.74
2024-02-13T22:16:33.734Z,80.65
2024-02-13T22:19:04.473Z,80.65
2024-02-13T22:21:33.721Z,80.78
2024-02-13T22:24:05.022Z,80.69
2024-02-13T22:26:40.152Z,80.56
2024-02-13T22:29:11.010Z,80.38
2024-02-13T22:31:40.060Z,80.45
2024-02-13T22:34:09.295Z,80.40
2024-02-13T22:36:38.896Z,80.43
2024-02-13T22:39:09.731Z,80.27
2024-02-13T22:41:40.345Z,80.08
2024-02-13T22:44:09.824Z,80.10
2024-02-13T22:46:38.957Z,80.08
2024-02-13T22:49:09.273Z,79.94
2024-02-13T22:51:40.314Z,79.87
2024-02-13T22:54:11.706Z,79.83
2024-02-13T22:56:42.265Z,79.78
2024-02-13T22:59:11.447Z,79.78
2024-02-13T23:01:40.923Z,79.72
2024-02-13T23:04:10.149Z,79.49
2024-02-13T23:06:39.471Z,79.44
2024-02-13T23:09:12.446Z,79.51
2024-02-13T23:11:43.129Z,79.46
2024-02-13T23:14:12.872Z,79.37
2024-02-13T23:16:42.918Z,79.44
2024-02-13T23:19:12.248Z,79.46
2024-02-13T23:21:41.731Z,79.52
2024-02-13T23:24:12.132Z,79.29
2024-02-13T23:26:44.396Z,79.20
2024-02-13T23:29:17.069Z,79.15
2024-02-13T23:31:48.435Z,79.07
2024-02-13T23:34:18.465Z,79.10
2024-02-13T23:36:56.878Z,79.13
2024-02-13T23:39:28.003Z,79.03
2024-02-13T23:42:01.506Z,79.07
2024-02-13T23:44:34.281Z,78.83
2024-02-13T23:47:03.404Z,78.87
2024-02-13T23:49:33.261Z,78.94
2024-02-13T23:52:10.380Z,78.86
2024-02-13T23:54:46.293Z,78.92
2024-02-13T23:57:28.818Z,78.88
2024-02-13T23:59:59.543Z,78.92
